• Join FlightAware (Why Join?)
  • Login
  • US Flag 
03:28PM EDT


 

Airport Tracker/Info


-or-


 

Live Flight TrackerFlight Track Log ✈ EJA122 ✈ 28-Dec-2013 ✈ KBTR - KCMH

Flight Track Log - Related Links

Times and Time Zones

All times are in EST time to prevent confusion due to time zone crossing. See the EJA122 flight status page for this flight to view local times or setup timezone preferences in your user account.

Time Position Orientation Groundspeed Altitude Reporting Facility
EST Latitude Longitude Course Direction KTS MPH feet Rate Location/Type
12:14PM 30.5844 -91.1153 49° Northeast 228 262 39,000  Level Houston Center
12:15PM 30.6392 -91.1517 330° Northwest 249 287 5,900 -14,520 Descending Houston Center
12:16PM 30.7050 -91.1894 334° Northwest 259 298 9,000 2,460 Climbing Houston Center
12:18PM 30.7844 -91.2111 347° North 290 334 11,100 1,620 Climbing Houston Center
12:19PM 30.8744 -91.2208 355° North 324 373 12,400 1,620 Climbing Houston Center
12:20PM 35.9666 -83.2081 49° Northeast  Level Estimated
12:20PM 30.9967 -91.2347 354° North 362 417 14,500  Level Houston Center
12:21PM 31.0975 -91.2444 355° North 375 432 16,100 1,500 Climbing Houston Center
12:22PM 31.1911 -91.3000 333° Northwest 377 434 17,700 1,380 Climbing Houston Center
12:23PM 31.2836 -91.3617 330° Northwest 371 427 19,000 1,320 Climbing Houston Center
12:24PM 31.3722 -91.4228 330° Northwest 372 428 20,500 1,500 Climbing Houston Center
12:25PM 31.4781 -91.4939 330° Northwest 368 423 22,100 1,380 Climbing Houston Center
12:26PM 31.5661 -91.5558 329° Northwest 370 426 23,400 1,200 Climbing Houston Center
12:28PM 31.7528 -91.6836 330° Northwest 386 444 25,700 1,020 Climbing Memphis Center
12:29PM 31.8461 -91.7481 330° Northwest 390 449 26,600 840 Climbing Memphis Center
12:30PM 31.9603 -91.8281 329° Northwest 398 458 27,600 780 Climbing Houston Center
12:31PM 32.0614 -91.8961 330° Northwest 410 472 28,400 720 Climbing Houston Center
12:33PM 32.2772 -92.0486 329° Northwest 433 498 30,000 720 Climbing Houston Center
12:34PM 32.3864 -92.0856 344° North 445 512 30,800 720 Climbing Fort Worth Center
12:35PM 32.5150 -92.0597 10° North 470 541 31,500 720 Climbing Fort Worth Center
12:36PM 32.6483 -91.9514 34° Northeast 487 560 32,400 780 Climbing Fort Worth Center
12:37PM 32.7597 -91.8506 37° Northeast 486 559 33,200 720 Climbing Fort Worth Center
12:38PM 32.8403 -91.7764 38° Northeast 486 559 33,800 720 Climbing Memphis Center
12:39PM 32.9697 -91.6578 38° Northeast 488 562 34,600 720 Climbing Memphis Center
12:40PM 32.9120 -92.4897 329° Northwest  Level FlightAware Approximate
12:40PM 33.0767 -91.5592 38° Northeast 489 563 35,300  Level Memphis Center
12:41PM 33.1850 -91.4611 37° Northeast 488 562 36,000 660 Climbing Memphis Center
12:42PM 33.2914 -91.3628 38° Northeast 487 560 36,700 600 Climbing Memphis Center
12:43PM 33.3967 -91.2639 38° Northeast 483 556 37,300 600 Climbing Memphis Center
12:44PM 33.5014 -91.1669 38° Northeast 479 551 38,000 720 Climbing Memphis Center
12:45PM 33.6242 -91.0506 38° Northeast 473 544 38,900 480 Climbing Memphis Center
12:46PM 33.7272 -90.9550 38° Northeast 469 540 39,000  Climbing Memphis Center
12:47PM 33.8292 -90.8589 38° Northeast 475 547 39,000  Level Memphis Center
12:48PM 33.9367 -90.7575 38° Northeast 484 557 39,000  Level Memphis Center
12:49PM 34.0472 -90.6531 38° Northeast 494 568 39,000  Level Memphis Center
12:51PM 34.1747 -90.5317 38° Northeast 496 571 39,000  Level Memphis Center
12:52PM 34.2850 -90.4269 38° Northeast 497 572 39,000  Level Memphis Center
12:53PM 34.3947 -90.3214 38° Northeast 500 575 39,000  Level Memphis Center
12:54PM 34.5047 -90.2153 38° Northeast 500 575 39,000  Level Memphis Center
12:55PM 34.6147 -90.1103 38° Northeast 499 574 39,000  Level Memphis Center
12:56PM 34.7253 -90.0033 38° Northeast 500 575 39,000  Level Memphis Center
12:57PM 34.8342 -89.8992 38° Northeast 501 577 39,000  Level Memphis Center
12:58PM 34.9647 -89.7692 39° Northeast 503 579 39,000  Level Memphis Center
12:59PM 35.0642 -89.6708 39° Northeast 507 583 39,000  Level Memphis Center
01:00PM 35.1739 -89.5622 39° Northeast 504 580 39,000  Level Memphis Center
01:01PM 35.2931 -89.4225 44° Northeast 503 579 39,000  Level Memphis Center
01:02PM 35.3925 -89.2922 47° Northeast 513 590 39,000  Level Memphis Center
01:03PM 35.4933 -89.1625 46° Northeast 518 596 39,000  Level Memphis Center
01:04PM 35.5942 -89.0311 47° Northeast 522 601 39,000  Level Memphis Center
01:05PM 35.6994 -88.8936 47° Northeast 523 602 39,000  Level Memphis Center
01:06PM 35.7981 -88.7633 47° Northeast 523 602 39,000  Level Memphis Center
01:07PM 35.8969 -88.6331 47° Northeast 524 603 39,000  Level Memphis Center
01:08PM 35.9947 -88.5031 47° Northeast 521 600 39,000  Level Memphis Center
01:09PM 36.1125 -88.3469 47° Northeast 519 597 39,000  Level Memphis Center
01:10PM 36.2117 -88.2147 47° Northeast 523 602 39,000  Level Memphis Center
01:11PM 36.3092 -88.0842 47° Northeast 528 608 39,000  Level Memphis Center
01:12PM 36.4111 -87.9472 47° Northeast 532 612 39,000  Level Memphis Center
01:13PM 36.5139 -87.8092 47° Northeast 535 616 39,000  Level Memphis Center
01:14PM 36.6172 -87.6692 47° Northeast 539 620 39,000  Level Memphis Center
01:15PM 36.7361 -87.5067 48° Northeast 537 618 39,000  Level Memphis Center
01:16PM 36.8378 -87.3656 48° Northeast 538 619 39,000  Level Memphis Center
01:17PM 36.9403 -87.2242 48° Northeast 540 621 39,000  Level Memphis Center
01:18PM 37.0417 -87.0844 48° Northeast 537 618 39,000  Level Memphis Center
01:19PM 37.1261 -86.9700 47° Northeast 535 616 39,000  Level Indianapolis Center
01:20PM 37.2253 -86.8292 48° Northeast 533 613 39,000  Level Indianapolis Center
01:21PM 37.3250 -86.6889 48° Northeast 533 613 39,000  Level Indianapolis Center
01:22PM 37.4250 -86.5497 48° Northeast 530 610 39,000  Level Indianapolis Center
01:23PM 37.5233 -86.4100 48° Northeast 529 609 39,000 -540 Level Indianapolis Center
01:24PM 37.6322 -86.2797 43° Northeast 534 615 38,000 -1,380 Descending Indianapolis Center
01:25PM 37.7369 -86.1647 41° Northeast 519 597 36,200 -1,800 Descending Indianapolis Center
01:26PM 37.8442 -86.0439 42° Northeast 517 595 34,400 -2,040 Descending Indianapolis Center
01:27PM 37.9742 -85.8983 41° Northeast 521 600 32,100 -1,680 Descending Indianapolis Center
01:28PM 38.0861 -85.7736 41° Northeast 532 612 31,000 -540 Descending Indianapolis Center
01:30PM 38.1961 -85.6481 42° Northeast 532 612 31,000  Level Indianapolis Center
01:31PM 38.3069 -85.5217 42° Northeast 535 616 31,000  Level Indianapolis Center
01:32PM 38.4183 -85.3958 41° Northeast 534 615 31,000  Level Indianapolis Center
01:33PM 38.5292 -85.2667 42° Northeast 537 618 31,000  Level Indianapolis Center
01:34PM 38.6481 -85.1319 41° Northeast 535 616 31,000 -120 Level Indianapolis Center
01:35PM 38.7564 -85.0042 43° Northeast 535 616 30,800 -1,500 Descending Indianapolis Center
01:36PM 38.8647 -84.8803 42° Northeast 528 608 27,900 -2,760 Descending Indianapolis Center
01:37PM 38.9758 -84.7525 42° Northeast 488 562 25,100 -2,100 Descending Indianapolis Center
01:38PM 39.0567 -84.6264 50° Northeast 460 529 23,600 -1,680 Descending Indianapolis Center
01:39PM 39.1303 -84.4967 54° Northeast 451 519 21,700 -1,800 Descending Indianapolis Center
01:40PM 39.2039 -84.3647 54° Northeast 453 521 20,000 -840 Descending Indianapolis Center
01:41PM 39.2886 -84.2089 55° Northeast 446 513 20,000 -60 Level Indianapolis Center
01:42PM 39.3425 -84.0697 63° Northeast 437 503 19,900 -1,080 Descending Indianapolis Center
01:43PM 39.3969 -83.9294 63° Northeast 437 503 17,900 -1,920 Descending Indianapolis Center
01:44PM 39.4497 -83.7933 63° Northeast 429 494 16,000 -1,860 Descending Indianapolis Center
01:45PM 39.4939 -83.6756 64° Northeast 398 458 14,500 -1,680 Descending Indianapolis Center
01:45PM 39.4986 -83.6656 59° Northeast 405 466 14,300 -2,040 Descending Indianapolis Center
01:45PM 39.5056 -83.6450 66° East 398 458 14,100 -1,680 Descending Indianapolis Center
01:46PM 39.5467 -83.5372 64° Northeast 401 461 12,600 -1,920 Descending Indianapolis Center
01:46PM 39.5625 -83.4972 63° Northeast 407 468 12,000 -1,560 Descending Indianapolis Center
01:47PM 39.6092 -83.3878 61° Northeast 400 460 11,000 -1,020 Descending Indianapolis Center
01:47PM 39.6208 -83.3764 37° Northeast 390 449 11,000 -900 Level Indianapolis Center
01:48PM 39.6756 -83.2817 53° Northeast 385 443 10,100 -660 Descending Indianapolis Center
01:49PM 39.7353 -83.1833 52° Northeast 359 413 9,800 -480 Descending Indianapolis Center
01:49PM 39.7442 -83.1683 52° Northeast 343 395 9,600 -1,560 Descending Indianapolis Center
01:50PM 39.7928 -83.0883 52° Northeast 342 394 8,200 -1,620 Descending Indianapolis Center
01:50PM 39.8014 -83.0767 46° Northeast 314 361 8,000 -1,500 Descending Indianapolis Center
01:51PM 39.8431 -83.0039 53° Northeast 305 351 6,700 -1,620 Descending Indianapolis Center
01:51PM 39.8539 -82.9872 50° Northeast 284 327 6,400 -720 Descending Indianapolis Center
01:52PM 39.8931 -82.9236 51° Northeast 292 336 6,000 -420 Descending Indianapolis Center
01:52PM 39.9039 -82.9053 52° Northeast 286 329 6,000 -120 Level Indianapolis Center
01:53PM 39.9094 -82.8269 85° East 289 333 5,900 -360 Descending Indianapolis Center
01:53PM 39.9072 -82.8019 97° East 263 303 5,600 -1,680 Descending Indianapolis Center
01:54PM 39.9042 -82.7194 93° East 257 296 4,200 -1,620 Descending Indianapolis Center
01:54PM 39.9078 -82.7067 70° East 241 277 4,000 -1,200 Descending Indianapolis Center
01:55PM 39.9517 -82.7039 North 228 262 3,000 -900 Descending Indianapolis Center
01:55PM 39.9639 -82.7128 331° Northwest 202 232 3,000 -240 Level Indianapolis Center
01:56PM 39.9947 -82.7456 321° Northwest 208 239 2,800 -420 Descending Indianapolis Center
01:56PM 39.9953 -82.7586 273° West 154 177 2,600 -840 Descending Indianapolis Center
01:57PM 39.9978 -82.7944 275° West 159 183 2,000 -720 Descending Indianapolis Center
01:57PM 39.9967 -82.8108 265° West 122 140 1,900 -540 Descending Indianapolis Center
01:58PM 39.9997 -82.8411 278° West 140 161 1,500 -720 Descending Indianapolis Center
01:58PM 40.0008 -82.8578 275° West 125 144 1,200 -240 Descending Indianapolis Center
01:59PM 40.0025 -82.8958 273° West 136 157 1,300 120 Climbing Indianapolis Center
02:01PM 39.9969 -82.8922 180° South  Level Estimated